sensor_id;sensor_type;location;lat;lon;timestamp;temperature;humidity
56046;DHT22;41913;51.030;3.706;2022-11-23T00:08:23;9.80;99.90
56046;DHT22;41913;51.030;3.706;2022-11-23T00:11:12;9.80;99.90
56046;DHT22;41913;51.030;3.706;2022-11-23T00:13:54;9.90;99.90
56046;DHT22;41913;51.030;3.706;2022-11-23T00:19:49;9.90;99.90
56046;DHT22;41913;51.030;3.706;2022-11-23T00:22:26;9.80;99.90
56046;DHT22;41913;51.030;3.706;2022-11-23T00:28:00;10.00;99.90
56046;DHT22;41913;51.030;3.706;2022-11-23T00:33:57;9.80;99.90
56046;DHT22;41913;51.030;3.706;2022-11-23T00:39:31;10.00;99.90
56046;DHT22;41913;51.030;3.706;2022-11-23T00:42:25;10.00;99.90
56046;DHT22;41913;51.030;3.706;2022-11-23T00:47:57;9.90;99.90
56046;DHT22;41913;51.030;3.706;2022-11-23T00:51:17;9.80;99.90
56046;DHT22;41913;51.030;3.706;2022-11-23T01:09:03;9.80;99.90
56046;DHT22;41913;51.030;3.706;2022-11-23T01:14:41;9.70;99.90
56046;DHT22;41913;51.030;3.706;2022-11-23T01:25:51;9.70;99.90
56046;DHT22;41913;51.030;3.706;2022-11-23T01:34:37;10.00;99.90
56046;DHT22;41913;51.030;3.706;2022-11-23T01:37:25;9.80;99.90
56046;DHT22;41913;51.030;3.706;2022-11-23T01:54:43;9.90;99.90
56046;DHT22;41913;51.030;3.706;2022-11-23T02:03:39;9.60;99.90
56046;DHT22;41913;51.030;3.706;2022-11-23T02:15:39;9.70;99.90
56046;DHT22;41913;51.030;3.706;2022-11-23T02:24:53;9.50;99.90
56046;DHT22;41913;51.030;3.706;2022-11-23T02:30:43;9.30;99.90
56046;DHT22;41913;51.030;3.706;2022-11-23T02:33:30;9.30;99.90
56046;DHT22;41913;51.030;3.706;2022-11-23T02:39:29;9.30;99.90
56046;DHT22;41913;51.030;3.706;2022-11-23T02:42:31;9.40;99.90
56046;DHT22;41913;51.030;3.706;2022-11-23T02:48:25;9.30;99.90
56046;DHT22;41913;51.030;3.706;2022-11-23T02:54:13;9.20;99.90
56046;DHT22;41913;51.030;3.706;2022-11-23T02:59:55;9.30;99.90
56046;DHT22;41913;51.030;3.706;2022-11-23T03:05:33;9.40;99.90
56046;DHT22;41913;51.030;3.706;2022-11-23T03:08:39;9.40;99.90
56046;DHT22;41913;51.030;3.706;2022-11-23T03:17:22;9.20;99.90
56046;DHT22;41913;51.030;3.706;2022-11-23T03:20:10;9.10;99.90
56046;DHT22;41913;51.030;3.706;2022-11-23T03:22:39;9.10;99.90
56046;DHT22;41913;51.030;3.706;2022-11-23T03:25:25;9.20;99.90
56046;DHT22;41913;51.030;3.706;2022-11-23T03:33:50;9.00;99.90
56046;DHT22;41913;51.030;3.706;2022-11-23T03:41:57;9.00;99.90
56046;DHT22;41913;51.030;3.706;2022-11-23T03:44:52;9.20;99.90
56046;DHT22;41913;51.030;3.706;2022-11-23T03:50:27;9.00;99.90
56046;DHT22;41913;51.030;3.706;2022-11-23T03:56:02;9.00;99.90
56046;DHT22;41913;51.030;3.706;2022-11-23T03:58:40;9.10;99.90
56046;DHT22;41913;51.030;3.706;2022-11-23T04:04:21;8.90;99.90
56046;DHT22;41913;51.030;3.706;2022-11-23T04:07:10;8.90;99.90
56046;DHT22;41913;51.030;3.706;2022-11-23T04:09:50;8.80;99.90
56046;DHT22;41913;51.030;3.706;2022-11-23T04:12:24;8.90;99.90
56046;DHT22;41913;51.030;3.706;2022-11-23T04:14:55;8.90;99.90
56046;DHT22;41913;51.030;3.706;2022-11-23T04:17:24;8.90;99.90
56046;DHT22;41913;51.030;3.706;2022-11-23T04:19:57;9.00;99.90
56046;DHT22;41913;51.030;3.706;2022-11-23T04:22:41;9.00;99.90
56046;DHT22;41913;51.030;3.706;2022-11-23T04:28:05;9.00;99.90
56046;DHT22;41913;51.030;3.706;2022-11-23T04:30:43;8.90;99.90
56046;DHT22;41913;51.030;3.706;2022-11-23T04:33:10;9.00;99.90
56046;DHT22;41913;51.030;3.706;2022-11-23T04:35:46;9.00;99.90
56046;DHT22;41913;51.030;3.706;2022-11-23T04:38:21;9.00;99.90
56046;DHT22;41913;51.030;3.706;2022-11-23T04:44:01;8.90;99.90
56046;DHT22;41913;51.030;3.706;2022-11-23T04:46:40;8.80;99.90
56046;DHT22;41913;51.030;3.706;2022-11-23T04:49:22;8.90;99.90
56046;DHT22;41913;51.030;3.706;2022-11-23T04:51:49;8.80;99.90
56046;DHT22;41913;51.030;3.706;2022-11-23T04:54:22;8.90;99.90
56046;DHT22;41913;51.030;3.706;2022-11-23T04:56:57;9.10;99.90
56046;DHT22;41913;51.030;3.706;2022-11-23T05:02:35;9.00;99.90
56046;DHT22;41913;51.030;3.706;2022-11-23T05:05:26;9.00;99.90
56046;DHT22;41913;51.030;3.706;2022-11-23T05:08:03;8.80;99.90
56046;DHT22;41913;51.030;3.706;2022-11-23T05:16:25;8.80;99.90
56046;DHT22;41913;51.030;3.706;2022-11-23T05:19:13;8.90;99.90
56046;DHT22;41913;51.030;3.706;2022-11-23T05:21:45;9.00;99.90
56046;DHT22;41913;51.030;3.706;2022-11-23T05:33:07;9.00;99.90
56046;DHT22;41913;51.030;3.706;2022-11-23T05:38:25;8.70;99.90
56046;DHT22;41913;51.030;3.706;2022-11-23T05:41:04;8.60;99.90
56046;DHT22;41913;51.030;3.706;2022-11-23T05:46:59;8.60;99.90
56046;DHT22;41913;51.030;3.706;2022-11-23T05:52:23;8.50;99.90
56046;DHT22;41913;51.030;3.706;2022-11-23T05:57:54;8.30;99.90
56046;DHT22;41913;51.030;3.706;2022-11-23T06:00:20;8.00;99.90
56046;DHT22;41913;51.030;3.706;2022-11-23T06:05:50;7.90;99.90
56046;DHT22;41913;51.030;3.706;2022-11-23T06:08:21;7.90;99.90
56046;DHT22;41913;51.030;3.706;2022-11-23T06:13:57;7.80;99.90
56046;DHT22;41913;51.030;3.706;2022-11-23T06:19:35;7.70;99.90
56046;DHT22;41913;51.030;3.706;2022-11-23T06:28:07;7.60;99.90
56046;DHT22;41913;51.030;3.706;2022-11-23T06:30:36;7.50;99.90
56046;DHT22;41913;51.030;3.706;2022-11-23T06:33:04;7.40;99.90
56046;DHT22;41913;51.030;3.706;2022-11-23T06:38:28;7.20;99.90
56046;DHT22;41913;51.030;3.706;2022-11-23T06:41:13;7.20;99.90
56046;DHT22;41913;51.030;3.706;2022-11-23T06:43:41;7.20;99.90
56046;DHT22;41913;51.030;3.706;2022-11-23T06:46:07;7.20;99.90
56046;DHT22;41913;51.030;3.706;2022-11-23T06:48:36;7.10;99.90
56046;DHT22;41913;51.030;3.706;2022-11-23T06:51:05;7.00;99.90
56046;DHT22;41913;51.030;3.706;2022-11-23T06:56:30;7.00;99.90
56046;DHT22;41913;51.030;3.706;2022-11-23T06:59:01;7.10;99.90
56046;DHT22;41913;51.030;3.706;2022-11-23T07:01:29;7.00;99.90
56046;DHT22;41913;51.030;3.706;2022-11-23T07:04:03;7.00;99.90
56046;DHT22;41913;51.030;3.706;2022-11-23T07:06:46;6.90;99.90
56046;DHT22;41913;51.030;3.706;2022-11-23T07:09:39;6.90;99.90
56046;DHT22;41913;51.030;3.706;2022-11-23T07:12:06;6.80;99.90
56046;DHT22;41913;51.030;3.706;2022-11-23T07:14:32;6.70;99.90
56046;DHT22;41913;51.030;3.706;2022-11-23T07:17:01;6.80;99.90
56046;DHT22;41913;51.030;3.706;2022-11-23T07:19:27;6.80;99.90
56046;DHT22;41913;51.030;3.706;2022-11-23T07:21:52;6.80;99.90
56046;DHT22;41913;51.030;3.706;2022-11-23T07:24:19;6.80;99.90
56046;DHT22;41913;51.030;3.706;2022-11-23T07:26:45;6.70;99.90
56046;DHT22;41913;51.030;3.706;2022-11-23T07:29:10;6.70;99.90
56046;DHT22;41913;51.030;3.706;2022-11-23T07:31:37;6.70;99.90
56046;DHT22;41913;51.030;3.706;2022-11-23T07:34:02;6.70;99.90
56046;DHT22;41913;51.030;3.706;2022-11-23T07:36:31;6.80;99.90
56046;DHT22;41913;51.030;3.706;2022-11-23T07:38:58;6.80;99.90
56046;DHT22;41913;51.030;3.706;2022-11-23T07:41:25;6.70;99.90
56046;DHT22;41913;51.030;3.706;2022-11-23T07:43:51;6.70;99.90
56046;DHT22;41913;51.030;3.706;2022-11-23T07:46:17;6.80;99.90
56046;DHT22;41913;51.030;3.706;2022-11-23T07:48:44;6.80;99.90
56046;DHT22;41913;51.030;3.706;2022-11-23T07:51:10;6.80;99.90
56046;DHT22;41913;51.030;3.706;2022-11-23T07:53:37;6.80;99.90
56046;DHT22;41913;51.030;3.706;2022-11-23T07:56:04;6.90;99.90
56046;DHT22;41913;51.030;3.706;2022-11-23T08:01:01;7.20;99.90
56046;DHT22;41913;51.030;3.706;2022-11-23T08:03:26;7.20;99.90
56046;DHT22;41913;51.030;3.706;2022-11-23T08:05:52;7.20;99.90
56046;DHT22;41913;51.030;3.706;2022-11-23T08:08:17;7.30;99.90
56046;DHT22;41913;51.030;3.706;2022-11-23T08:10:44;7.10;99.90
56046;DHT22;41913;51.030;3.706;2022-11-23T08:15:38;7.10;99.90
56046;DHT22;41913;51.030;3.706;2022-11-23T08:18:05;7.10;99.90
56046;DHT22;41913;51.030;3.706;2022-11-23T08:20:30;7.20;99.90
56046;DHT22;41913;51.030;3.706;2022-11-23T08:22:56;7.20;99.90
56046;DHT22;41913;51.030;3.706;2022-11-23T08:25:25;7.30;99.90
56046;DHT22;41913;51.030;3.706;2022-11-23T08:28:00;7.40;99.90
56046;DHT22;41913;51.030;3.706;2022-11-23T08:30:27;7.50;99.90
56046;DHT22;41913;51.030;3.706;2022-11-23T08:32:54;7.60;99.90
56046;DHT22;41913;51.030;3.706;2022-11-23T08:35:20;7.50;99.90
56046;DHT22;41913;51.030;3.706;2022-11-23T08:37:47;7.60;99.90
56046;DHT22;41913;51.030;3.706;2022-11-23T08:40:14;7.70;99.90
56046;DHT22;41913;51.030;3.706;2022-11-23T08:42:56;7.70;99.90
56046;DHT22;41913;51.030;3.706;2022-11-23T08:45:22;7.80;99.90
56046;DHT22;41913;51.030;3.706;2022-11-23T08:47:49;8.00;99.90
56046;DHT22;41913;51.030;3.706;2022-11-23T08:52:47;7.90;99.90
56046;DHT22;41913;51.030;3.706;2022-11-23T08:55:13;8.00;99.90
56046;DHT22;41913;51.030;3.706;2022-11-23T08:57:40;8.10;99.90
56046;DHT22;41913;51.030;3.706;2022-11-23T09:00:07;8.20;99.90
56046;DHT22;41913;51.030;3.706;2022-11-23T09:02:39;8.20;99.90
56046;DHT22;41913;51.030;3.706;2022-11-23T09:05:06;8.20;99.90
56046;DHT22;41913;51.030;3.706;2022-11-23T09:07:31;8.10;99.90
56046;DHT22;41913;51.030;3.706;2022-11-23T09:09:58;8.20;99.90
56046;DHT22;41913;51.030;3.706;2022-11-23T09:12:24;8.40;99.90
56046;DHT22;41913;51.030;3.706;2022-11-23T09:14:51;8.30;99.90
56046;DHT22;41913;51.030;3.706;2022-11-23T09:17:17;8.40;99.90
56046;DHT22;41913;51.030;3.706;2022-11-23T09:22:11;8.20;99.90
56046;DHT22;41913;51.030;3.706;2022-11-23T09:24:38;8.20;99.90
56046;DHT22;41913;51.030;3.706;2022-11-23T09:27:04;8.30;99.90
56046;DHT22;41913;51.030;3.706;2022-11-23T09:29:35;8.40;99.90
56046;DHT22;41913;51.030;3.706;2022-11-23T09:32:01;8.40;99.90
56046;DHT22;41913;51.030;3.706;2022-11-23T09:34:28;8.60;99.90
56046;DHT22;41913;51.030;3.706;2022-11-23T09:36:55;8.80;99.90
56046;DHT22;41913;51.030;3.706;2022-11-23T09:39:26;8.70;99.90
56046;DHT22;41913;51.030;3.706;2022-11-23T09:42:01;8.70;99.90
56046;DHT22;41913;51.030;3.706;2022-11-23T09:52:33;8.70;99.90
56046;DHT22;41913;51.030;3.706;2022-11-23T09:55:02;8.90;99.90
56046;DHT22;41913;51.030;3.706;2022-11-23T10:00:00;8.80;99.90
56046;DHT22;41913;51.030;3.706;2022-11-23T10:02:27;8.90;99.90
56046;DHT22;41913;51.030;3.706;2022-11-23T10:04:54;8.70;99.90
56046;DHT22;41913;51.030;3.706;2022-11-23T10:07:24;8.80;99.90
56046;DHT22;41913;51.030;3.706;2022-11-23T10:13:03;8.70;99.90
56046;DHT22;41913;51.030;3.706;2022-11-23T10:15:37;8.80;99.90
56046;DHT22;41913;51.030;3.706;2022-11-23T10:20:37;8.90;99.90
56046;DHT22;41913;51.030;3.706;2022-11-23T10:25:43;9.10;99.90
56046;DHT22;41913;51.030;3.706;2022-11-23T10:28:13;9.30;99.90
56046;DHT22;41913;51.030;3.706;2022-11-23T10:30:56;9.10;99.90
56046;DHT22;41913;51.030;3.706;2022-11-23T10:33:29;9.10;99.90
56046;DHT22;41913;51.030;3.706;2022-11-23T10:35:55;9.10;99.90
56046;DHT22;41913;51.030;3.706;2022-11-23T10:38:23;8.90;99.90
56046;DHT22;41913;51.030;3.706;2022-11-23T10:41:08;9.10;99.90
56046;DHT22;41913;51.030;3.706;2022-11-23T10:46:28;9.30;99.90
56046;DHT22;41913;51.030;3.706;2022-11-23T10:48:55;9.20;99.90
56046;DHT22;41913;51.030;3.706;2022-11-23T10:51:35;9.10;99.90
56046;DHT22;41913;51.030;3.706;2022-11-23T10:54:03;9.20;99.90
56046;DHT22;41913;51.030;3.706;2022-11-23T10:56:30;9.30;99.90
56046;DHT22;41913;51.030;3.706;2022-11-23T10:58:57;9.40;99.90
56046;DHT22;41913;51.030;3.706;2022-11-23T11:01:25;9.60;99.90
56046;DHT22;41913;51.030;3.706;2022-11-23T11:03:51;9.40;99.90
56046;DHT22;41913;51.030;3.706;2022-11-23T11:06:22;9.50;99.90
56046;DHT22;41913;51.030;3.706;2022-11-23T11:08:56;9.40;99.90
56046;DHT22;41913;51.030;3.706;2022-11-23T11:11:25;9.30;99.90
56046;DHT22;41913;51.030;3.706;2022-11-23T11:14:00;9.50;99.90
56046;DHT22;41913;51.030;3.706;2022-11-23T11:18:51;9.40;99.90
56046;DHT22;41913;51.030;3.706;2022-11-23T11:21:51;9.40;99.90
56046;DHT22;41913;51.030;3.706;2022-11-23T11:24:17;9.30;99.90
56046;DHT22;41913;51.030;3.706;2022-11-23T11:26:48;9.40;99.90
56046;DHT22;41913;51.030;3.706;2022-11-23T11:32:02;9.30;99.90
56046;DHT22;41913;51.030;3.706;2022-11-23T11:37:02;9.20;99.90
56046;DHT22;41913;51.030;3.706;2022-11-23T11:39:41;9.10;99.90
56046;DHT22;41913;51.030;3.706;2022-11-23T11:42:13;9.00;99.90
56046;DHT22;41913;51.030;3.706;2022-11-23T11:47:32;8.80;99.90
56046;DHT22;41913;51.030;3.706;2022-11-23T11:50:00;8.70;99.90
56046;DHT22;41913;51.030;3.706;2022-11-23T11:52:29;8.80;99.90
56046;DHT22;41913;51.030;3.706;2022-11-23T11:55:03;8.80;99.90
56046;DHT22;41913;51.030;3.706;2022-11-23T11:58:03;8.80;99.90
56046;DHT22;41913;51.030;3.706;2022-11-23T12:00:21;8.90;99.90
56046;DHT22;41913;51.030;3.706;2022-11-23T12:03:03;9.00;99.90
56046;DHT22;41913;51.030;3.706;2022-11-23T12:08:23;9.10;99.90
56046;DHT22;41913;51.030;3.706;2022-11-23T12:13:29;9.10;99.90
56046;DHT22;41913;51.030;3.706;2022-11-23T12:18:40;9.10;99.90
56046;DHT22;41913;51.030;3.706;2022-11-23T12:34:01;8.80;99.90
56046;DHT22;41913;51.030;3.706;2022-11-23T12:39:39;8.90;99.90
56046;DHT22;41913;51.030;3.706;2022-11-23T12:42:07;8.90;99.90
56046;DHT22;41913;51.030;3.706;2022-11-23T12:49:58;9.10;99.90
56046;DHT22;41913;51.030;3.706;2022-11-23T12:52:29;9.20;99.90
56046;DHT22;41913;51.030;3.706;2022-11-23T12:57:48;9.10;99.90
56046;DHT22;41913;51.030;3.706;2022-11-23T13:00:23;9.20;99.90
56046;DHT22;41913;51.030;3.706;2022-11-23T13:08:32;9.30;99.90
56046;DHT22;41913;51.030;3.706;2022-11-23T13:13:42;9.30;99.90
56046;DHT22;41913;51.030;3.706;2022-11-23T13:18:59;9.20;99.90
56046;DHT22;41913;51.030;3.706;2022-11-23T13:21:40;9.10;99.90
56046;DHT22;41913;51.030;3.706;2022-11-23T13:40:32;9.50;99.90
56046;DHT22;41913;51.030;3.706;2022-11-23T13:48:50;9.50;99.90
56046;DHT22;41913;51.030;3.706;2022-11-23T13:51:29;9.50;99.90
56046;DHT22;41913;51.030;3.706;2022-11-23T13:54:01;9.40;99.90
56046;DHT22;41913;51.030;3.706;2022-11-23T13:56:42;9.20;99.90
56046;DHT22;41913;51.030;3.706;2022-11-23T13:59:30;9.20;99.90
56046;DHT22;41913;51.030;3.706;2022-11-23T14:04:41;9.20;99.90
56046;DHT22;41913;51.030;3.706;2022-11-23T14:15:11;9.30;99.90
56046;DHT22;41913;51.030;3.706;2022-11-23T14:34:00;10.00;99.90
56046;DHT22;41913;51.030;3.706;2022-11-23T14:41:38;10.10;99.90
56046;DHT22;41913;51.030;3.706;2022-11-23T14:49:30;10.10;99.90
56046;DHT22;41913;51.030;3.706;2022-11-23T14:51:59;10.20;99.90
56046;DHT22;41913;51.030;3.706;2022-11-23T14:54:26;10.40;99.90
56046;DHT22;41913;51.030;3.706;2022-11-23T15:02:03;10.50;99.90
56046;DHT22;41913;51.030;3.706;2022-11-23T15:07:09;10.30;99.90
56046;DHT22;41913;51.030;3.706;2022-11-23T15:12:27;10.40;99.90
56046;DHT22;41913;51.030;3.706;2022-11-23T15:17:26;10.30;99.90
56046;DHT22;41913;51.030;3.706;2022-11-23T15:19:55;10.00;99.90
56046;DHT22;41913;51.030;3.706;2022-11-23T15:22:29;10.00;99.90
56046;DHT22;41913;51.030;3.706;2022-11-23T15:25:07;9.90;99.90
56046;DHT22;41913;51.030;3.706;2022-11-23T15:27:47;9.90;99.90
56046;DHT22;41913;51.030;3.706;2022-11-23T15:32:52;9.70;99.90
56046;DHT22;41913;51.030;3.706;2022-11-23T15:38:02;9.70;99.90
56046;DHT22;41913;51.030;3.706;2022-11-23T15:40:35;9.50;99.90
56046;DHT22;41913;51.030;3.706;2022-11-23T15:43:02;9.40;99.90
56046;DHT22;41913;51.030;3.706;2022-11-23T15:48:17;9.40;99.90
56046;DHT22;41913;51.030;3.706;2022-11-23T15:53:45;9.30;99.90
56046;DHT22;41913;51.030;3.706;2022-11-23T15:58:51;9.20;99.90
56046;DHT22;41913;51.030;3.706;2022-11-23T16:01:23;9.10;99.90
56046;DHT22;41913;51.030;3.706;2022-11-23T16:03:52;9.20;99.90
56046;DHT22;41913;51.030;3.706;2022-11-23T16:06:27;9.20;99.90
56046;DHT22;41913;51.030;3.706;2022-11-23T16:08:57;9.20;99.90
56046;DHT22;41913;51.030;3.706;2022-11-23T16:11:34;9.10;99.90
56046;DHT22;41913;51.030;3.706;2022-11-23T16:14:19;9.00;99.90
56046;DHT22;41913;51.030;3.706;2022-11-23T16:19:41;9.20;99.90
56046;DHT22;41913;51.030;3.706;2022-11-23T16:22:13;9.10;99.90
56046;DHT22;41913;51.030;3.706;2022-11-23T16:24:41;9.00;99.90
56046;DHT22;41913;51.030;3.706;2022-11-23T16:27:22;9.00;99.90
56046;DHT22;41913;51.030;3.706;2022-11-23T16:32:25;8.90;99.90
56046;DHT22;41913;51.030;3.706;2022-11-23T16:34:52;9.00;99.90
56046;DHT22;41913;51.030;3.706;2022-11-23T16:37:21;8.90;99.90
56046;DHT22;41913;51.030;3.706;2022-11-23T16:42:22;8.70;99.90
56046;DHT22;41913;51.030;3.706;2022-11-23T16:44:53;8.80;99.90
56046;DHT22;41913;51.030;3.706;2022-11-23T16:49:54;8.80;99.90
56046;DHT22;41913;51.030;3.706;2022-11-23T16:52:21;8.80;99.90
56046;DHT22;41913;51.030;3.706;2022-11-23T16:54:49;8.80;99.90
56046;DHT22;41913;51.030;3.706;2022-11-23T16:57:26;8.80;99.90
56046;DHT22;41913;51.030;3.706;2022-11-23T16:59:53;8.80;99.90
56046;DHT22;41913;51.030;3.706;2022-11-23T17:02:20;8.90;99.90
56046;DHT22;41913;51.030;3.706;2022-11-23T17:04:47;8.90;99.90
56046;DHT22;41913;51.030;3.706;2022-11-23T17:07:15;8.90;99.90
56046;DHT22;41913;51.030;3.706;2022-11-23T17:12:28;8.90;99.90
56046;DHT22;41913;51.030;3.706;2022-11-23T17:15:04;8.90;99.90
56046;DHT22;41913;51.030;3.706;2022-11-23T17:17:33;8.90;99.90
56046;DHT22;41913;51.030;3.706;2022-11-23T17:20:02;8.80;99.90
56046;DHT22;41913;51.030;3.706;2022-11-23T17:22:28;8.80;99.90
56046;DHT22;41913;51.030;3.706;2022-11-23T17:24:55;8.80;99.90
56046;DHT22;41913;51.030;3.706;2022-11-23T17:27:21;8.70;99.90
56046;DHT22;41913;51.030;3.706;2022-11-23T17:29:58;8.90;99.90
56046;DHT22;41913;51.030;3.706;2022-11-23T17:32:32;9.00;99.90
56046;DHT22;41913;51.030;3.706;2022-11-23T17:34:58;9.00;99.90
56046;DHT22;41913;51.030;3.706;2022-11-23T17:37:24;9.00;99.90
56046;DHT22;41913;51.030;3.706;2022-11-23T17:39:50;9.00;99.90
56046;DHT22;41913;51.030;3.706;2022-11-23T17:42:16;9.10;99.90
56046;DHT22;41913;51.030;3.706;2022-11-23T17:44:45;9.30;99.90
56046;DHT22;41913;51.030;3.706;2022-11-23T17:50:16;9.30;99.90
56046;DHT22;41913;51.030;3.706;2022-11-23T17:52:48;9.40;99.90
56046;DHT22;41913;51.030;3.706;2022-11-23T17:55:17;9.40;99.90
56046;DHT22;41913;51.030;3.706;2022-11-23T17:57:45;9.30;99.90
56046;DHT22;41913;51.030;3.706;2022-11-23T18:00:16;9.20;99.90
56046;DHT22;41913;51.030;3.706;2022-11-23T18:02:43;9.10;99.90
56046;DHT22;41913;51.030;3.706;2022-11-23T18:05:11;9.00;99.90
56046;DHT22;41913;51.030;3.706;2022-11-23T18:07:41;9.00;99.90
56046;DHT22;41913;51.030;3.706;2022-11-23T18:10:13;9.00;99.90
56046;DHT22;41913;51.030;3.706;2022-11-23T18:12:41;9.00;99.90
56046;DHT22;41913;51.030;3.706;2022-11-23T18:15:16;9.00;99.90
56046;DHT22;41913;51.030;3.706;2022-11-23T18:20:10;9.10;99.90
56046;DHT22;41913;51.030;3.706;2022-11-23T18:25:06;9.20;99.90
56046;DHT22;41913;51.030;3.706;2022-11-23T18:27:31;9.40;99.90
56046;DHT22;41913;51.030;3.706;2022-11-23T18:29:58;9.60;99.90
56046;DHT22;41913;51.030;3.706;2022-11-23T18:32:27;9.50;99.90
56046;DHT22;41913;51.030;3.706;2022-11-23T18:37:23;9.50;99.90
56046;DHT22;41913;51.030;3.706;2022-11-23T18:39:50;9.50;99.90
56046;DHT22;41913;51.030;3.706;2022-11-23T18:42:27;9.60;99.90
56046;DHT22;41913;51.030;3.706;2022-11-23T18:44:52;9.60;99.90
56046;DHT22;41913;51.030;3.706;2022-11-23T18:47:27;9.70;99.90
56046;DHT22;41913;51.030;3.706;2022-11-23T18:49:59;9.70;99.90
56046;DHT22;41913;51.030;3.706;2022-11-23T18:52:27;9.70;99.90
56046;DHT22;41913;51.030;3.706;2022-11-23T18:54:58;9.70;99.90
56046;DHT22;41913;51.030;3.706;2022-11-23T18:57:29;9.70;99.90
56046;DHT22;41913;51.030;3.706;2022-11-23T19:00:02;9.60;99.90
56046;DHT22;41913;51.030;3.706;2022-11-23T19:05:03;9.50;99.90
56046;DHT22;41913;51.030;3.706;2022-11-23T19:07:34;9.50;99.90
56046;DHT22;41913;51.030;3.706;2022-11-23T19:10:05;9.50;99.90
56046;DHT22;41913;51.030;3.706;2022-11-23T19:12:34;9.50;99.90
56046;DHT22;41913;51.030;3.706;2022-11-23T19:15:11;9.60;99.90
56046;DHT22;41913;51.030;3.706;2022-11-23T19:17:39;9.50;99.90
56046;DHT22;41913;51.030;3.706;2022-11-23T19:20:04;9.50;99.90
56046;DHT22;41913;51.030;3.706;2022-11-23T19:22:46;9.40;99.90
56046;DHT22;41913;51.030;3.706;2022-11-23T19:27:43;9.20;99.90
56046;DHT22;41913;51.030;3.706;2022-11-23T19:30:10;9.30;99.90
56046;DHT22;41913;51.030;3.706;2022-11-23T19:32:38;9.20;99.90
56046;DHT22;41913;51.030;3.706;2022-11-23T19:35:11;9.20;99.90
56046;DHT22;41913;51.030;3.706;2022-11-23T19:37:45;9.20;99.90
56046;DHT22;41913;51.030;3.706;2022-11-23T19:40:13;9.30;99.90
56046;DHT22;41913;51.030;3.706;2022-11-23T19:42:42;9.20;99.90
56046;DHT22;41913;51.030;3.706;2022-11-23T19:47:39;9.30;99.90
56046;DHT22;41913;51.030;3.706;2022-11-23T19:50:07;9.20;99.90
56046;DHT22;41913;51.030;3.706;2022-11-23T19:55:05;9.20;99.90
56046;DHT22;41913;51.030;3.706;2022-11-23T19:57:35;9.20;99.90
56046;DHT22;41913;51.030;3.706;2022-11-23T20:00:01;9.20;99.90
56046;DHT22;41913;51.030;3.706;2022-11-23T20:02:26;9.20;99.90
56046;DHT22;41913;51.030;3.706;2022-11-23T20:04:55;9.20;99.90
56046;DHT22;41913;51.030;3.706;2022-11-23T20:07:21;9.20;99.90
56046;DHT22;41913;51.030;3.706;2022-11-23T20:09:49;9.10;99.90
56046;DHT22;41913;51.030;3.706;2022-11-23T20:12:14;9.00;99.90
56046;DHT22;41913;51.030;3.706;2022-11-23T20:14:42;9.10;99.90
56046;DHT22;41913;51.030;3.706;2022-11-23T20:17:10;9.10;99.90
56046;DHT22;41913;51.030;3.706;2022-11-23T20:22:06;9.10;99.90
56046;DHT22;41913;51.030;3.706;2022-11-23T20:27:01;9.00;99.90
56046;DHT22;41913;51.030;3.706;2022-11-23T20:32:03;9.00;99.90
56046;DHT22;41913;51.030;3.706;2022-11-23T20:34:30;8.90;99.90
56046;DHT22;41913;51.030;3.706;2022-11-23T20:36:59;8.90;99.90
56046;DHT22;41913;51.030;3.706;2022-11-23T20:39:31;9.00;99.90
56046;DHT22;41913;51.030;3.706;2022-11-23T20:41:59;9.00;99.90
56046;DHT22;41913;51.030;3.706;2022-11-23T20:44:27;9.00;99.90
56046;DHT22;41913;51.030;3.706;2022-11-23T20:46:54;9.00;99.90
56046;DHT22;41913;51.030;3.706;2022-11-23T20:49:22;8.90;99.90
56046;DHT22;41913;51.030;3.706;2022-11-23T20:51:51;8.90;99.90
56046;DHT22;41913;51.030;3.706;2022-11-23T20:54:17;8.90;99.90
56046;DHT22;41913;51.030;3.706;2022-11-23T20:56:43;8.90;99.90
56046;DHT22;41913;51.030;3.706;2022-11-23T20:59:11;9.00;99.90
56046;DHT22;41913;51.030;3.706;2022-11-23T21:04:16;8.90;99.90
56046;DHT22;41913;51.030;3.706;2022-11-23T21:06:48;8.80;99.90
56046;DHT22;41913;51.030;3.706;2022-11-23T21:09:16;8.80;99.90
56046;DHT22;41913;51.030;3.706;2022-11-23T21:11:44;8.70;99.90
56046;DHT22;41913;51.030;3.706;2022-11-23T21:17:01;8.90;99.90
56046;DHT22;41913;51.030;3.706;2022-11-23T21:19:34;8.90;99.90
56046;DHT22;41913;51.030;3.706;2022-11-23T21:22:05;8.90;99.90
56046;DHT22;41913;51.030;3.706;2022-11-23T21:24:32;8.90;99.90
56046;DHT22;41913;51.030;3.706;2022-11-23T21:27:02;8.90;99.90
56046;DHT22;41913;51.030;3.706;2022-11-23T21:29:31;9.00;99.90
56046;DHT22;41913;51.030;3.706;2022-11-23T21:31:58;9.00;99.90
56046;DHT22;41913;51.030;3.706;2022-11-23T21:34:29;9.00;99.90
56046;DHT22;41913;51.030;3.706;2022-11-23T21:37:01;9.00;99.90
56046;DHT22;41913;51.030;3.706;2022-11-23T21:39:29;9.00;99.90
56046;DHT22;41913;51.030;3.706;2022-11-23T21:41:55;9.00;99.90
56046;DHT22;41913;51.030;3.706;2022-11-23T21:44:24;9.00;99.90
56046;DHT22;41913;51.030;3.706;2022-11-23T21:49:28;9.10;99.90
56046;DHT22;41913;51.030;3.706;2022-11-23T21:51:57;9.00;99.90
56046;DHT22;41913;51.030;3.706;2022-11-23T21:54:24;9.10;99.90
56046;DHT22;41913;51.030;3.706;2022-11-23T21:56:52;9.00;99.90
56046;DHT22;41913;51.030;3.706;2022-11-23T21:59:19;9.00;99.90
56046;DHT22;41913;51.030;3.706;2022-11-23T22:01:44;9.10;99.90
56046;DHT22;41913;51.030;3.706;2022-11-23T22:04:15;9.00;99.90
56046;DHT22;41913;51.030;3.706;2022-11-23T22:06:46;8.90;99.90
56046;DHT22;41913;51.030;3.706;2022-11-23T22:09:14;8.80;99.90
56046;DHT22;41913;51.030;3.706;2022-11-23T22:11:46;8.90;99.90
56046;DHT22;41913;51.030;3.706;2022-11-23T22:14:14;8.90;99.90
56046;DHT22;41913;51.030;3.706;2022-11-23T22:16:44;8.80;99.90
56046;DHT22;41913;51.030;3.706;2022-11-23T22:19:16;8.80;99.90
56046;DHT22;41913;51.030;3.706;2022-11-23T22:21:47;8.80;99.90
56046;DHT22;41913;51.030;3.706;2022-11-23T22:26:51;8.90;99.90
56046;DHT22;41913;51.030;3.706;2022-11-23T22:29:18;8.90;99.90
56046;DHT22;41913;51.030;3.706;2022-11-23T22:31:47;8.90;99.90
56046;DHT22;41913;51.030;3.706;2022-11-23T22:34:13;9.00;99.90
56046;DHT22;41913;51.030;3.706;2022-11-23T22:36:40;9.00;99.90
56046;DHT22;41913;51.030;3.706;2022-11-23T22:39:11;8.90;99.90
56046;DHT22;41913;51.030;3.706;2022-11-23T22:41:40;8.90;99.90
56046;DHT22;41913;51.030;3.706;2022-11-23T22:44:13;8.90;99.90
56046;DHT22;41913;51.030;3.706;2022-11-23T22:46:42;8.80;99.90
56046;DHT22;41913;51.030;3.706;2022-11-23T22:49:11;8.80;99.90
56046;DHT22;41913;51.030;3.706;2022-11-23T22:51:38;8.80;99.90
56046;DHT22;41913;51.030;3.706;2022-11-23T22:54:09;8.90;99.90
56046;DHT22;41913;51.030;3.706;2022-11-23T22:56:37;8.90;99.90
56046;DHT22;41913;51.030;3.706;2022-11-23T22:59:06;8.90;99.90
56046;DHT22;41913;51.030;3.706;2022-11-23T23:01:34;8.90;99.90
56046;DHT22;41913;51.030;3.706;2022-11-23T23:04:01;9.00;99.90
56046;DHT22;41913;51.030;3.706;2022-11-23T23:06:28;9.00;99.90
56046;DHT22;41913;51.030;3.706;2022-11-23T23:08:56;9.00;99.90